Share

Slater, MO (65349)

Miami (KMOMIAMI2) Elev 804 ft | 39.29 °N, 93.23 °W | Change Station

Current weather conditions updated 3 minutes ago

Overcast
Overcast
68.0 °F
Feels Like 68.0 °F
N
13.4
Wind Variable Wind from West
Sunrise 6:26 AM
Sunset 7:55 PM
Moon Waning Gibbous

Today is forecast to be Much Cooler than yesterday. Thunderstorms.

Pressure 30.00 in
Visibility 10.0 miles
Clouds Overcast 11000 ft
Dew Point 60 °F
Humidity 77%
Rainfall 0.00 in
Snow Depth Not available.
UV 2 out of 16
Pollen 7.00 out of 12
Air Quality Not available.
Flu Activity Sporadic
METAR KVER 211555Z AUTO 22007KT 10SM OVC110 21/13 A3000 RMK AO2 T02060134

More Conditions Fewer Conditions

Pressure 30.00 in
Visibility 10.0 miles
Clouds Overcast 11000 ft
Dew Point 60 °F
Humidity 77%
Rainfall 0.00 in
Snow Depth Not available.
UV 2 out of 16
Pollen 7.00 out of 12
Air Quality Not available.
Flu Activity Sporadic
METAR KVER 211555Z AUTO 22007KT 10SM OVC110 21/13 A3000 RMK AO2 T02060134

More Conditions Fewer Conditions

10-Day Weather Forecast

Almanac

Astronomy

Apr. 21, 2014 Rise Set
Actual Time 6:26 AM CDT 7:55 PM CDT
Civil Twilight 5:58 AM CDT 8:23 PM CDT
Nautical Twilight 5:24 AM CDT 8:57 PM CDT
Astronomical Twilight 4:49 AM CDT 9:33 PM CDT
Moon 1:25 AM CDT 11:54 AM CDT
Length of Visible Light 14h 25m
Length of Day
13h 28m
Tomorrow will be 2m 21s longer.
Waning Gibbous, 58% of the Moon is Illuminated
Today
Waning Gibbous
Apr 22
Last Quarter
Apr 29
New
May 6
First Quarter
May 14
Full

Today's Extremes

State Highs State Lows

Community

  • Bright Eyes
    Bright Eyes
  • Snowy Robin
    Snowy Robin
  • Spring Crocus
    Spring Crocus
  • Sun Pillar and Geese
    Sun Pillar and Geese
  • Showers on the Way
    Showers on the Way

WunderPhotos

Upload Photos

1,703,674 photos uploaded!

Nearby

Snow Depth

Station Depth Elevation
No new snow has been reported.

Coastal Water Temperatures

Place Temperature
No Stations Reporting

Earthquake Activity

City Distance Mag. Time & Date
No recent earthquake activity has been reported nearby.
Minimum magnitude displayed is 2.5.

Nearby Weather Stations

Station Location Temp. Heat Index Dew Point Humidity Wind Precip. Elev Updated Type
Miami, Miami, MO 68.0 °F - 60 °F 77% West  at  13.4 mph - / hr 804 ft 11:03 AM CDT Normal
NonFedAWOS MARSHALL , Marshall, MO 68 °F - 61 °F 78% SW  at  7 mph 0.00 in / hr 778 ft 10:35 AM CDT MADIS
MesoWest BNVILE , Boonville, MO 66 °F - - - North  at  - 0.00 in / hr 599 ft 8:05 AM CDT MADIS
901 Riviera Drive, Boonville, MO 72.7 °F 76 °F 60 °F 64% NW  at  4.0 mph 0.00 in / hr 764 ft 10:59 AM CDT Normal
APRSWXNET Waverly MO , Waverly, MO 64 °F - 58 °F 82% East  at  0 mph 0.00 in / hr 797 ft 10:02 AM CDT MADIS

Show More Stations Show Fewer Stations

What do you think?

We're not finished. Please let us know what you like, what you don't like, and what you are still missing.